KCDS/CDS METAR and TAF weather

Enter ICAO airport designator
Station Type Date Time Source
KCDS METAR 2022/06/27 17:53 UTC NOAA

KCDS 271753Z AUTO 05009G17KT 10SM CLR 28/07 A3032 RMK AO2 SLP244 T02830072 10283 20172 56005


Station Type Date Time Source
KCDS Decoded METAR 2022/06/27 17:53 UTC NOAA

CHILDRESS MUNICIPAL AIRPORT, TX, United States (KCDS) 34-26N 100-17W 594M
Jun 27, 2022 - 01:53 PM EDT / 2022.06.27 1753 UTC
Wind: from the NE (050 degrees) at 10 MPH (9 KT) gusting to 20 MPH (17 KT):0
Visibility: 10 mile(s):0
Sky conditions: clear
Temperature: 82.9 F (28.3 C)
Dew Point: 45.0 F (7.2 C)
Relative Humidity: 26%
Pressure (altimeter): 30.32 in. Hg (1026 hPa)
Pressure tendency: 0.01 inches (0.5 hPa) lower than three hours ago
ob: KCDS 271753Z AUTO 05009G17KT 10SM CLR 28/07 A3032 RMK AO2 SLP244 T02830072 10283 20172 56005
cycle: 18

Station Type Date Time Source
KCDS TAF 2022/06/27 18:22 UTC NOAA

TAF KCDS 271720Z 2718/2818 05011KT P6SM FEW120 SCT200
FM280900 08007KT P6SM BKN100

Example: see airport list